sensor_id;sensor_type;location;lat;lon;timestamp;pressure;altitude;pressure_sealevel;temperature;humidity
13033;BME280;6583;42.632;23.298;2024-02-23T00:01:08;70989.75;;;-146.40;72.21
13033;BME280;6583;42.632;23.298;2024-02-23T00:03:36;70963.44;;;-146.40;71.54
13033;BME280;6583;42.632;23.298;2024-02-23T00:06:04;70967.50;;;-146.40;70.16
13033;BME280;6583;42.632;23.298;2024-02-23T00:08:32;70933.09;;;-146.40;69.77
13033;BME280;6583;42.632;23.298;2024-02-23T00:10:59;70949.28;;;-146.40;67.68
13033;BME280;6583;42.632;23.298;2024-02-23T00:13:26;70951.31;;;-146.40;67.50
13033;BME280;6583;42.632;23.298;2024-02-23T00:15:52;70894.66;;;-146.40;66.77
13033;BME280;6583;42.632;23.298;2024-02-23T00:18:19;70922.97;;;-146.40;66.40
13033;BME280;6583;42.632;23.298;2024-02-23T00:20:46;70898.69;;;-146.40;67.08
13033;BME280;6583;42.632;23.298;2024-02-23T00:23:14;70910.84;;;-146.40;67.26
13033;BME280;6583;42.632;23.298;2024-02-23T00:25:41;70908.81;;;-146.40;67.75
13033;BME280;6583;42.632;23.298;2024-02-23T00:28:08;70920.94;;;-146.40;68.10
13033;BME280;6583;42.632;23.298;2024-02-23T00:30:35;70906.78;;;-146.40;67.67
13033;BME280;6583;42.632;23.298;2024-02-23T00:33:02;70947.25;;;-146.40;68.85
13033;BME280;6583;42.632;23.298;2024-02-23T00:35:28;70933.09;;;-146.40;69.48
13033;BME280;6583;42.632;23.298;2024-02-23T00:37:55;70971.53;;;-146.40;70.24
13033;BME280;6583;42.632;23.298;2024-02-23T00:40:23;70959.41;;;-146.40;70.52
13033;BME280;6583;42.632;23.298;2024-02-23T00:42:50;70957.38;;;-146.40;70.47
13033;BME280;6583;42.632;23.298;2024-02-23T00:45:17;70941.19;;;-146.40;70.74
13033;BME280;6583;42.632;23.298;2024-02-23T00:47:44;70935.13;;;-146.40;70.73
13033;BME280;6583;42.632;23.298;2024-02-23T00:50:12;70939.16;;;-146.40;70.05
13033;BME280;6583;42.632;23.298;2024-02-23T00:52:39;70967.50;;;-146.40;70.74
13033;BME280;6583;42.632;23.298;2024-02-23T00:55:07;70959.41;;;-146.40;71.97
13033;BME280;6583;42.632;23.298;2024-02-23T00:57:35;70918.94;;;-146.40;66.25
13033;BME280;6583;42.632;23.298;2024-02-23T01:00:02;70906.78;;;-146.40;67.60
13033;BME280;6583;42.632;23.298;2024-02-23T01:02:30;70906.78;;;-146.40;66.42
13033;BME280;6583;42.632;23.298;2024-02-23T01:04:57;70872.38;;;-146.40;66.80
13033;BME280;6583;42.632;23.298;2024-02-23T01:07:24;70882.50;;;-146.40;67.61
13033;BME280;6583;42.632;23.298;2024-02-23T01:09:51;70882.50;;;-146.40;67.76
13033;BME280;6583;42.632;23.298;2024-02-23T01:12:17;70888.56;;;-146.40;68.28
13033;BME280;6583;42.632;23.298;2024-02-23T01:14:45;70900.72;;;-146.40;68.93
13033;BME280;6583;42.632;23.298;2024-02-23T01:17:13;70918.94;;;-146.40;70.79
13033;BME280;6583;42.632;23.298;2024-02-23T01:19:40;70914.88;;;-146.40;69.61
13033;BME280;6583;42.632;23.298;2024-02-23T01:22:07;70939.16;;;-146.40;70.06
13033;BME280;6583;42.632;23.298;2024-02-23T01:24:34;70920.94;;;-146.40;69.38
13033;BME280;6583;42.632;23.298;2024-02-23T01:27:01;70914.88;;;-146.40;70.17
13033;BME280;6583;42.632;23.298;2024-02-23T01:29:28;70918.94;;;-146.40;70.05
13033;BME280;6583;42.632;23.298;2024-02-23T01:31:56;70927.03;;;-146.40;70.88
13033;BME280;6583;42.632;23.298;2024-02-23T01:34:22;70922.97;;;-146.40;71.60
13033;BME280;6583;42.632;23.298;2024-02-23T01:36:49;70933.09;;;-146.40;71.25
13033;BME280;6583;42.632;23.298;2024-02-23T01:39:16;70943.22;;;-146.40;71.63
13033;BME280;6583;42.632;23.298;2024-02-23T01:41:42;70941.19;;;-146.40;71.55
13033;BME280;6583;42.632;23.298;2024-02-23T01:44:11;70931.06;;;-146.40;71.77
13033;BME280;6583;42.632;23.298;2024-02-23T01:46:37;70927.03;;;-146.40;71.72
13033;BME280;6583;42.632;23.298;2024-02-23T01:49:06;70927.03;;;-146.40;72.51
13033;BME280;6583;42.632;23.298;2024-02-23T01:51:34;70916.91;;;-146.40;73.08
13033;BME280;6583;42.632;23.298;2024-02-23T01:54:01;70918.94;;;-146.40;72.39
13033;BME280;6583;42.632;23.298;2024-02-23T01:56:28;70912.84;;;-146.40;72.45
13033;BME280;6583;42.632;23.298;2024-02-23T01:58:55;70922.97;;;-146.40;72.37
13033;BME280;6583;42.632;23.298;2024-02-23T02:01:22;70894.66;;;-146.40;72.13
13033;BME280;6583;42.632;23.298;2024-02-23T02:03:49;70922.97;;;-146.40;72.42
13033;BME280;6583;42.632;23.298;2024-02-23T02:06:17;70916.91;;;-146.40;72.50
13033;BME280;6583;42.632;23.298;2024-02-23T02:08:44;70908.81;;;-146.40;71.79
13033;BME280;6583;42.632;23.298;2024-02-23T02:11:12;70918.94;;;-146.40;71.22
13033;BME280;6583;42.632;23.298;2024-02-23T02:13:38;70922.97;;;-146.40;70.83
13033;BME280;6583;42.632;23.298;2024-02-23T02:16:05;70912.84;;;-146.40;70.38
13033;BME280;6583;42.632;23.298;2024-02-23T02:18:32;70914.88;;;-146.40;69.80
13033;BME280;6583;42.632;23.298;2024-02-23T02:20:59;70902.75;;;-146.40;69.57
13033;BME280;6583;42.632;23.298;2024-02-23T02:23:27;70904.75;;;-146.40;69.49
13033;BME280;6583;42.632;23.298;2024-02-23T02:25:54;70896.66;;;-146.40;69.56
13033;BME280;6583;42.632;23.298;2024-02-23T02:28:22;70892.63;;;-146.40;69.13
13033;BME280;6583;42.632;23.298;2024-02-23T02:30:49;70890.59;;;-146.40;69.28
13033;BME280;6583;42.632;23.298;2024-02-23T02:33:16;70900.72;;;-146.40;69.00
13033;BME280;6583;42.632;23.298;2024-02-23T02:35:42;70894.66;;;-146.40;68.88
13033;BME280;6583;42.632;23.298;2024-02-23T02:38:10;70892.63;;;-146.40;69.11
13033;BME280;6583;42.632;23.298;2024-02-23T02:40:38;70890.59;;;-146.40;69.01
13033;BME280;6583;42.632;23.298;2024-02-23T02:43:05;70892.63;;;-146.40;69.18
13033;BME280;6583;42.632;23.298;2024-02-23T02:45:32;70886.56;;;-146.40;69.36
13033;BME280;6583;42.632;23.298;2024-02-23T02:48:00;70890.59;;;-146.40;68.93
13033;BME280;6583;42.632;23.298;2024-02-23T02:50:27;70902.75;;;-146.40;69.52
13033;BME280;6583;42.632;23.298;2024-02-23T02:52:54;70894.66;;;-146.40;70.05
13033;BME280;6583;42.632;23.298;2024-02-23T02:55:20;70914.88;;;-146.40;70.77
13033;BME280;6583;42.632;23.298;2024-02-23T02:57:48;70896.66;;;-146.40;71.34
13033;BME280;6583;42.632;23.298;2024-02-23T03:00:15;70898.69;;;-146.40;71.57
13033;BME280;6583;42.632;23.298;2024-02-23T03:02:42;70904.75;;;-146.40;71.32
13033;BME280;6583;42.632;23.298;2024-02-23T03:05:09;70910.84;;;-146.40;72.04
13033;BME280;6583;42.632;23.298;2024-02-23T03:07:35;70922.97;;;-146.40;72.31
13033;BME280;6583;42.632;23.298;2024-02-23T03:10:03;70945.22;;;-146.40;74.05
13033;BME280;6583;42.632;23.298;2024-02-23T03:12:29;70929.03;;;-146.40;73.69
13033;BME280;6583;42.632;23.298;2024-02-23T03:14:58;70927.03;;;-146.40;73.79
13033;BME280;6583;42.632;23.298;2024-02-23T03:17:24;70914.88;;;-146.40;73.91
13033;BME280;6583;42.632;23.298;2024-02-23T03:19:51;70908.81;;;-146.40;73.27
13033;BME280;6583;42.632;23.298;2024-02-23T03:22:18;70898.69;;;-146.40;73.53
13033;BME280;6583;42.632;23.298;2024-02-23T03:24:44;70896.66;;;-146.40;73.23
13033;BME280;6583;42.632;23.298;2024-02-23T03:27:11;70896.66;;;-146.40;73.56
13033;BME280;6583;42.632;23.298;2024-02-23T03:29:38;70894.66;;;-146.40;73.67
13033;BME280;6583;42.632;23.298;2024-02-23T03:32:07;70894.66;;;-146.40;74.12
13033;BME280;6583;42.632;23.298;2024-02-23T03:34:34;70890.59;;;-146.40;73.50
13033;BME280;6583;42.632;23.298;2024-02-23T03:37:01;70906.78;;;-146.40;74.32
13033;BME280;6583;42.632;23.298;2024-02-23T03:39:28;70918.94;;;-146.40;74.80
13033;BME280;6583;42.632;23.298;2024-02-23T03:41:55;70904.75;;;-146.40;74.71
13033;BME280;6583;42.632;23.298;2024-02-23T03:44:22;70918.94;;;-146.40;74.91
13033;BME280;6583;42.632;23.298;2024-02-23T03:46:48;70918.94;;;-146.40;75.17
13033;BME280;6583;42.632;23.298;2024-02-23T03:49:16;70935.13;;;-146.40;75.58
13033;BME280;6583;42.632;23.298;2024-02-23T03:51:43;70929.03;;;-146.40;75.44
13033;BME280;6583;42.632;23.298;2024-02-23T03:54:10;70933.09;;;-146.40;75.72
13033;BME280;6583;42.632;23.298;2024-02-23T03:56:39;70929.03;;;-146.40;74.85
13033;BME280;6583;42.632;23.298;2024-02-23T03:59:06;70906.78;;;-146.40;74.23
13033;BME280;6583;42.632;23.298;2024-02-23T04:01:35;70878.47;;;-146.40;74.32
13033;BME280;6583;42.632;23.298;2024-02-23T04:04:05;70908.81;;;-146.40;73.99
13033;BME280;6583;42.632;23.298;2024-02-23T04:06:34;70882.50;;;-146.40;72.06
13033;BME280;6583;42.632;23.298;2024-02-23T04:09:00;70858.22;;;-146.40;71.31
13033;BME280;6583;42.632;23.298;2024-02-23T04:11:30;70858.22;;;-146.40;71.06
13033;BME280;6583;42.632;23.298;2024-02-23T04:13:56;70858.22;;;-146.40;71.34
13033;BME280;6583;42.632;23.298;2024-02-23T04:16:24;70854.19;;;-146.40;71.98
13033;BME280;6583;42.632;23.298;2024-02-23T04:18:51;70854.19;;;-146.40;70.12
13033;BME280;6583;42.632;23.298;2024-02-23T04:21:17;70874.41;;;-146.40;71.52
13033;BME280;6583;42.632;23.298;2024-02-23T04:23:46;70876.44;;;-146.40;71.66
13033;BME280;6583;42.632;23.298;2024-02-23T04:26:13;70884.53;;;-146.40;71.83
13033;BME280;6583;42.632;23.298;2024-02-23T04:28:40;70912.84;;;-146.40;72.45
13033;BME280;6583;42.632;23.298;2024-02-23T04:31:08;70906.78;;;-146.40;72.98
13033;BME280;6583;42.632;23.298;2024-02-23T04:33:34;70910.84;;;-146.40;73.24
13033;BME280;6583;42.632;23.298;2024-02-23T04:36:02;70931.06;;;-146.40;73.65
13033;BME280;6583;42.632;23.298;2024-02-23T04:38:32;70931.06;;;-146.40;74.12
13033;BME280;6583;42.632;23.298;2024-02-23T04:41:02;70935.13;;;-146.40;74.24
13033;BME280;6583;42.632;23.298;2024-02-23T04:43:29;70939.16;;;-146.40;73.73
13033;BME280;6583;42.632;23.298;2024-02-23T04:45:56;70951.31;;;-146.40;74.41
13033;BME280;6583;42.632;23.298;2024-02-23T04:48:22;70939.16;;;-146.40;74.19
13033;BME280;6583;42.632;23.298;2024-02-23T04:50:49;70951.31;;;-146.40;73.81
13033;BME280;6583;42.632;23.298;2024-02-23T04:53:17;70943.22;;;-146.40;73.53
13033;BME280;6583;42.632;23.298;2024-02-23T04:55:44;70965.47;;;-146.40;74.05
13033;BME280;6583;42.632;23.298;2024-02-23T04:58:12;70967.50;;;-146.40;73.59
13033;BME280;6583;42.632;23.298;2024-02-23T05:00:39;70963.44;;;-146.40;72.68
13033;BME280;6583;42.632;23.298;2024-02-23T05:03:06;70947.25;;;-146.40;72.90
13033;BME280;6583;42.632;23.298;2024-02-23T05:05:35;70951.31;;;-146.40;72.75
13033;BME280;6583;42.632;23.298;2024-02-23T05:08:02;70935.13;;;-146.40;72.11
13033;BME280;6583;42.632;23.298;2024-02-23T05:10:28;70951.31;;;-146.40;72.30
13033;BME280;6583;42.632;23.298;2024-02-23T05:12:55;70933.09;;;-146.40;71.58
13033;BME280;6583;42.632;23.298;2024-02-23T05:15:23;70943.22;;;-146.40;71.77
13033;BME280;6583;42.632;23.298;2024-02-23T05:17:50;70947.25;;;-146.40;72.63
13033;BME280;6583;42.632;23.298;2024-02-23T05:20:16;70949.28;;;-146.40;73.25
13033;BME280;6583;42.632;23.298;2024-02-23T05:22:43;70955.34;;;-146.40;72.24
13033;BME280;6583;42.632;23.298;2024-02-23T05:25:10;70951.31;;;-146.40;72.64
13033;BME280;6583;42.632;23.298;2024-02-23T05:27:36;70977.59;;;-146.40;72.75
13033;BME280;6583;42.632;23.298;2024-02-23T05:30:04;70973.56;;;-146.40;73.60
13033;BME280;6583;42.632;23.298;2024-02-23T05:32:33;70981.66;;;-146.40;73.22
13033;BME280;6583;42.632;23.298;2024-02-23T05:35:00;70971.53;;;-146.40;72.92
13033;BME280;6583;42.632;23.298;2024-02-23T05:37:27;70983.69;;;-146.40;73.56
13033;BME280;6583;42.632;23.298;2024-02-23T05:39:53;70983.69;;;-146.40;74.52
13033;BME280;6583;42.632;23.298;2024-02-23T05:42:20;70983.69;;;-146.40;74.32
13033;BME280;6583;42.632;23.298;2024-02-23T05:44:47;70981.66;;;-146.40;74.82
13033;BME280;6583;42.632;23.298;2024-02-23T05:47:14;71007.97;;;-146.40;74.82
13033;BME280;6583;42.632;23.298;2024-02-23T05:49:42;70995.81;;;-146.40;75.60
13033;BME280;6583;42.632;23.298;2024-02-23T05:52:09;70989.75;;;-146.40;74.41
13033;BME280;6583;42.632;23.298;2024-02-23T05:54:35;70997.84;;;-146.40;75.13
13033;BME280;6583;42.632;23.298;2024-02-23T05:57:02;70999.88;;;-146.40;74.38
13033;BME280;6583;42.632;23.298;2024-02-23T05:59:30;70995.81;;;-146.40;74.46
13033;BME280;6583;42.632;23.298;2024-02-23T06:01:57;70993.78;;;-146.40;74.01
13033;BME280;6583;42.632;23.298;2024-02-23T06:04:23;70993.78;;;-146.40;73.86
13033;BME280;6583;42.632;23.298;2024-02-23T06:06:51;70991.78;;;-146.40;74.39
13033;BME280;6583;42.632;23.298;2024-02-23T06:09:18;70995.81;;;-146.40;73.97
13033;BME280;6583;42.632;23.298;2024-02-23T06:11:45;70971.53;;;-146.40;74.50
13033;BME280;6583;42.632;23.298;2024-02-23T06:14:12;70947.25;;;-146.40;74.62
13033;BME280;6583;42.632;23.298;2024-02-23T06:16:39;70963.44;;;-146.40;74.53
13033;BME280;6583;42.632;23.298;2024-02-23T06:19:06;70967.50;;;-146.40;75.18
13033;BME280;6583;42.632;23.298;2024-02-23T06:21:33;70951.31;;;-146.40;73.51
13033;BME280;6583;42.632;23.298;2024-02-23T06:24:01;70951.31;;;-146.40;74.25
13033;BME280;6583;42.632;23.298;2024-02-23T06:26:28;70935.13;;;-146.40;73.74
13033;BME280;6583;42.632;23.298;2024-02-23T06:28:54;70931.06;;;-146.40;71.60
13033;BME280;6583;42.632;23.298;2024-02-23T06:31:21;70931.06;;;-146.40;71.57
13033;BME280;6583;42.632;23.298;2024-02-23T06:33:48;70898.69;;;-146.40;70.06
13033;BME280;6583;42.632;23.298;2024-02-23T06:36:16;70898.69;;;-146.40;70.87
13033;BME280;6583;42.632;23.298;2024-02-23T06:38:43;70872.38;;;-146.40;71.23
13033;BME280;6583;42.632;23.298;2024-02-23T06:41:12;70880.47;;;-146.40;69.97
13033;BME280;6583;42.632;23.298;2024-02-23T06:43:39;70878.47;;;-146.40;69.45
13033;BME280;6583;42.632;23.298;2024-02-23T06:46:06;70846.09;;;-146.40;68.48
13033;BME280;6583;42.632;23.298;2024-02-23T06:48:34;70838.00;;;-146.40;67.93
13033;BME280;6583;42.632;23.298;2024-02-23T06:51:01;70829.91;;;-146.40;68.42
13033;BME280;6583;42.632;23.298;2024-02-23T06:53:28;70827.88;;;-146.40;69.62
13033;BME280;6583;42.632;23.298;2024-02-23T06:55:55;70821.81;;;-146.40;68.86
13033;BME280;6583;42.632;23.298;2024-02-23T06:58:23;70817.75;;;-146.40;67.09
13033;BME280;6583;42.632;23.298;2024-02-23T07:00:50;70817.75;;;-146.40;67.54
13033;BME280;6583;42.632;23.298;2024-02-23T07:03:16;70811.69;;;-146.40;65.94
13033;BME280;6583;42.632;23.298;2024-02-23T07:05:43;70807.63;;;-146.40;66.81
13033;BME280;6583;42.632;23.298;2024-02-23T07:08:10;70805.63;;;-146.40;66.89
13033;BME280;6583;42.632;23.298;2024-02-23T07:10:37;70813.72;;;-146.40;67.38
13033;BME280;6583;42.632;23.298;2024-02-23T07:13:04;70801.56;;;-146.40;67.16
13033;BME280;6583;42.632;23.298;2024-02-23T07:15:32;70825.84;;;-146.40;66.71
13033;BME280;6583;42.632;23.298;2024-02-23T07:17:59;70817.75;;;-146.40;67.47
13033;BME280;6583;42.632;23.298;2024-02-23T07:20:25;70815.72;;;-146.40;66.97
13033;BME280;6583;42.632;23.298;2024-02-23T07:22:52;70817.75;;;-146.40;66.85
13033;BME280;6583;42.632;23.298;2024-02-23T07:25:19;70825.84;;;-146.40;67.20
13033;BME280;6583;42.632;23.298;2024-02-23T07:27:47;70805.63;;;-146.40;67.43
13033;BME280;6583;42.632;23.298;2024-02-23T07:30:15;70785.38;;;-146.40;67.31
13033;BME280;6583;42.632;23.298;2024-02-23T07:32:44;70797.53;;;-146.40;67.16
13033;BME280;6583;42.632;23.298;2024-02-23T07:35:11;70765.16;;;-146.40;66.49
13033;BME280;6583;42.632;23.298;2024-02-23T07:37:39;70761.09;;;-146.40;66.28
13033;BME280;6583;42.632;23.298;2024-02-23T07:40:06;70753.00;;;-146.40;65.44
13033;BME280;6583;42.632;23.298;2024-02-23T07:42:33;70722.66;;;-146.40;66.81
13033;BME280;6583;42.632;23.298;2024-02-23T07:45:02;70720.63;;;-146.40;65.46
13033;BME280;6583;42.632;23.298;2024-02-23T07:47:30;70716.59;;;-146.40;63.97
13033;BME280;6583;42.632;23.298;2024-02-23T07:49:58;70700.41;;;-146.40;63.11
13033;BME280;6583;42.632;23.298;2024-02-23T07:52:25;70692.31;;;-146.40;63.28
13033;BME280;6583;42.632;23.298;2024-02-23T07:54:51;70682.19;;;-146.40;62.66
13033;BME280;6583;42.632;23.298;2024-02-23T07:57:18;70682.19;;;-146.40;63.00
13033;BME280;6583;42.632;23.298;2024-02-23T07:59:45;70688.25;;;-146.40;63.99
13033;BME280;6583;42.632;23.298;2024-02-23T08:02:11;70686.25;;;-146.40;64.02
13033;BME280;6583;42.632;23.298;2024-02-23T08:04:38;70684.22;;;-146.40;64.09
13033;BME280;6583;42.632;23.298;2024-02-23T08:07:07;70682.19;;;-146.40;64.01
13033;BME280;6583;42.632;23.298;2024-02-23T08:09:33;70647.78;;;-146.40;64.93
13033;BME280;6583;42.632;23.298;2024-02-23T08:12:00;70663.97;;;-146.40;64.02
13033;BME280;6583;42.632;23.298;2024-02-23T08:14:27;70655.88;;;-146.40;63.55
13033;BME280;6583;42.632;23.298;2024-02-23T08:16:53;70633.63;;;-146.40;64.39
13033;BME280;6583;42.632;23.298;2024-02-23T08:19:20;70631.59;;;-146.40;63.74
13033;BME280;6583;42.632;23.298;2024-02-23T08:21:47;70623.50;;;-146.40;63.76
13033;BME280;6583;42.632;23.298;2024-02-23T08:24:15;70651.84;;;-146.40;63.80
13033;BME280;6583;42.632;23.298;2024-02-23T08:26:41;70627.56;;;-146.40;63.85
13033;BME280;6583;42.632;23.298;2024-02-23T08:29:08;70615.41;;;-146.40;64.17
13033;BME280;6583;42.632;23.298;2024-02-23T08:31:35;70591.16;;;-146.40;63.34
13033;BME280;6583;42.632;23.298;2024-02-23T08:34:02;70570.91;;;-146.40;63.79
13033;BME280;6583;42.632;23.298;2024-02-23T08:36:28;70554.72;;;-146.40;63.35
13033;BME280;6583;42.632;23.298;2024-02-23T08:38:55;70542.59;;;-146.40;62.24
13033;BME280;6583;42.632;23.298;2024-02-23T08:41:23;70530.44;;;-146.40;60.67
13033;BME280;6583;42.632;23.298;2024-02-23T08:43:50;70526.41;;;-146.40;61.29
13033;BME280;6583;42.632;23.298;2024-02-23T08:46:16;70512.25;;;-146.40;61.01
13033;BME280;6583;42.632;23.298;2024-02-23T08:48:43;70526.41;;;-146.40;60.98
13033;BME280;6583;42.632;23.298;2024-02-23T08:51:10;70494.03;;;-146.40;60.24
13033;BME280;6583;42.632;23.298;2024-02-23T08:53:37;70494.03;;;-146.40;59.99
13033;BME280;6583;42.632;23.298;2024-02-23T08:56:04;70492.00;;;-146.40;59.56
13033;BME280;6583;42.632;23.298;2024-02-23T08:58:33;70459.63;;;-146.40;59.89
13033;BME280;6583;42.632;23.298;2024-02-23T09:01:00;70445.47;;;-146.40;58.42
13033;BME280;6583;42.632;23.298;2024-02-23T09:03:27;70447.50;;;-146.40;58.59
13033;BME280;6583;42.632;23.298;2024-02-23T09:05:53;70445.47;;;-146.40;57.46
13033;BME280;6583;42.632;23.298;2024-02-23T09:08:20;70413.09;;;-146.40;57.25
13033;BME280;6583;42.632;23.298;2024-02-23T09:10:47;70425.25;;;-146.40;57.14
13033;BME280;6583;42.632;23.298;2024-02-23T09:13:13;70421.19;;;-146.40;58.20
13033;BME280;6583;42.632;23.298;2024-02-23T09:15:42;70396.91;;;-146.40;56.69
13033;BME280;6583;42.632;23.298;2024-02-23T09:18:08;70384.78;;;-146.40;54.40
13033;BME280;6583;42.632;23.298;2024-02-23T09:20:35;70372.63;;;-146.40;54.52
13033;BME280;6583;42.632;23.298;2024-02-23T09:23:02;70388.81;;;-146.40;53.16
13033;BME280;6583;42.632;23.298;2024-02-23T09:25:28;70352.41;;;-146.40;53.87
13033;BME280;6583;42.632;23.298;2024-02-23T09:27:57;70338.25;;;-146.40;54.07
13033;BME280;6583;42.632;23.298;2024-02-23T09:30:23;70316.00;;;-146.40;51.92
13033;BME280;6583;42.632;23.298;2024-02-23T09:32:51;70311.94;;;-146.40;50.02
13033;BME280;6583;42.632;23.298;2024-02-23T09:35:18;70303.84;;;-146.40;50.99
13033;BME280;6583;42.632;23.298;2024-02-23T09:37:45;70283.63;;;-146.40;50.43
13033;BME280;6583;42.632;23.298;2024-02-23T09:40:12;70269.47;;;-146.40;50.12
13033;BME280;6583;42.632;23.298;2024-02-23T09:42:40;70237.09;;;-146.40;47.94
13033;BME280;6583;42.632;23.298;2024-02-23T09:45:08;70243.16;;;-146.40;48.49
13033;BME280;6583;42.632;23.298;2024-02-23T09:47:37;70218.88;;;-146.40;48.13
13033;BME280;6583;42.632;23.298;2024-02-23T09:50:08;70206.75;;;-146.40;46.97
13033;BME280;6583;42.632;23.298;2024-02-23T09:52:35;70190.56;;;-146.40;46.70
13033;BME280;6583;42.632;23.298;2024-02-23T09:55:02;70170.34;;;-146.40;44.82
13033;BME280;6583;42.632;23.298;2024-02-23T09:57:30;70137.97;;;-146.40;45.97
13033;BME280;6583;42.632;23.298;2024-02-23T09:59:57;70129.88;;;-146.40;44.06
13033;BME280;6583;42.632;23.298;2024-02-23T10:02:25;70109.63;;;-146.40;45.90
13033;BME280;6583;42.632;23.298;2024-02-23T10:04:54;70085.38;;;-146.40;44.96
13033;BME280;6583;42.632;23.298;2024-02-23T10:07:24;70073.22;;;-146.40;42.96
13033;BME280;6583;42.632;23.298;2024-02-23T10:09:52;70067.16;;;-146.40;42.47
13033;BME280;6583;42.632;23.298;2024-02-23T10:12:20;70059.06;;;-146.40;42.49
13033;BME280;6583;42.632;23.298;2024-02-23T10:14:47;70048.97;;;-146.40;43.41
13033;BME280;6583;42.632;23.298;2024-02-23T10:17:14;70030.75;;;-146.40;42.67
13033;BME280;6583;42.632;23.298;2024-02-23T10:19:41;70024.69;;;-146.40;41.77
13033;BME280;6583;42.632;23.298;2024-02-23T10:22:07;70008.50;;;-146.40;43.24
13033;BME280;6583;42.632;23.298;2024-02-23T10:24:36;70004.44;;;-146.40;42.39
13033;BME280;6583;42.632;23.298;2024-02-23T10:27:03;70016.59;;;-146.40;41.67
13033;BME280;6583;42.632;23.298;2024-02-23T10:29:30;70024.69;;;-146.40;40.89
13033;BME280;6583;42.632;23.298;2024-02-23T10:31:57;70038.84;;;-146.40;41.82
13033;BME280;6583;42.632;23.298;2024-02-23T10:34:24;70038.84;;;-146.40;41.56
13033;BME280;6583;42.632;23.298;2024-02-23T10:36:52;70032.78;;;-146.40;42.29
13033;BME280;6583;42.632;23.298;2024-02-23T10:39:22;70014.56;;;-146.40;41.93
13033;BME280;6583;42.632;23.298;2024-02-23T10:41:56;70004.44;;;-146.40;42.10
13033;BME280;6583;42.632;23.298;2024-02-23T10:44:24;69986.25;;;-146.40;41.25
13033;BME280;6583;42.632;23.298;2024-02-23T10:46:51;69988.25;;;-146.40;40.80
13033;BME280;6583;42.632;23.298;2024-02-23T10:49:19;70008.50;;;-146.40;40.08
13033;BME280;6583;42.632;23.298;2024-02-23T10:51:49;70010.53;;;-146.40;40.17
13033;BME280;6583;42.632;23.298;2024-02-23T10:54:18;70010.53;;;-146.40;40.16
13033;BME280;6583;42.632;23.298;2024-02-23T10:56:48;70008.50;;;-146.40;40.25
13033;BME280;6583;42.632;23.298;2024-02-23T10:59:16;70016.59;;;-146.40;39.86
13033;BME280;6583;42.632;23.298;2024-02-23T11:01:45;70014.56;;;-146.40;40.92
13033;BME280;6583;42.632;23.298;2024-02-23T11:04:14;69996.34;;;-146.40;39.79
13033;BME280;6583;42.632;23.298;2024-02-23T11:06:42;69980.19;;;-146.40;40.13
13033;BME280;6583;42.632;23.298;2024-02-23T11:09:12;69988.25;;;-146.40;39.81
13033;BME280;6583;42.632;23.298;2024-02-23T11:11:39;69988.25;;;-146.40;40.39
13033;BME280;6583;42.632;23.298;2024-02-23T11:14:07;69961.97;;;-146.40;39.85
13033;BME280;6583;42.632;23.298;2024-02-23T11:16:40;69951.84;;;-146.40;39.45
13033;BME280;6583;42.632;23.298;2024-02-23T11:19:08;69957.94;;;-146.40;39.10
13033;BME280;6583;42.632;23.298;2024-02-23T11:21:37;69961.97;;;-146.40;38.76
13033;BME280;6583;42.632;23.298;2024-02-23T11:24:05;69943.75;;;-146.40;38.90
13033;BME280;6583;42.632;23.298;2024-02-23T11:26:32;69976.13;;;-146.40;38.53
13033;BME280;6583;42.632;23.298;2024-02-23T11:29:09;69974.09;;;-146.40;39.17
13033;BME280;6583;42.632;23.298;2024-02-23T11:31:36;69955.91;;;-146.40;39.33
13033;BME280;6583;42.632;23.298;2024-02-23T11:34:11;69951.84;;;-146.40;39.24
13033;BME280;6583;42.632;23.298;2024-02-23T11:36:39;69931.63;;;-146.40;38.46
13033;BME280;6583;42.632;23.298;2024-02-23T11:39:05;69931.63;;;-146.40;38.56
13033;BME280;6583;42.632;23.298;2024-02-23T11:41:32;69923.53;;;-146.40;38.03
13033;BME280;6583;42.632;23.298;2024-02-23T11:43:58;69931.63;;;-146.40;38.04
13033;BME280;6583;42.632;23.298;2024-02-23T11:46:25;69943.75;;;-146.40;36.90
13033;BME280;6583;42.632;23.298;2024-02-23T11:48:52;69927.59;;;-146.40;38.59
13033;BME280;6583;42.632;23.298;2024-02-23T11:51:21;69919.50;;;-146.40;37.90
13033;BME280;6583;42.632;23.298;2024-02-23T11:53:49;69907.34;;;-146.40;38.34
13033;BME280;6583;42.632;23.298;2024-02-23T11:56:16;69925.56;;;-146.40;38.25
13033;BME280;6583;42.632;23.298;2024-02-23T11:58:43;69899.25;;;-146.40;37.72
13033;BME280;6583;42.632;23.298;2024-02-23T12:01:10;69909.38;;;-146.40;38.39
13033;BME280;6583;42.632;23.298;2024-02-23T12:03:37;69919.50;;;-146.40;37.75
13033;BME280;6583;42.632;23.298;2024-02-23T12:06:05;69907.34;;;-146.40;36.77
13033;BME280;6583;42.632;23.298;2024-02-23T12:08:34;69897.25;;;-146.40;37.90
13033;BME280;6583;42.632;23.298;2024-02-23T12:11:04;69881.06;;;-146.40;37.41
13033;BME280;6583;42.632;23.298;2024-02-23T12:13:32;69872.97;;;-146.40;38.34
13033;BME280;6583;42.632;23.298;2024-02-23T12:16:00;69893.19;;;-146.40;37.66
13033;BME280;6583;42.632;23.298;2024-02-23T12:18:27;69895.22;;;-146.40;37.90
13033;BME280;6583;42.632;23.298;2024-02-23T12:20:59;69899.25;;;-146.40;36.72
13033;BME280;6583;42.632;23.298;2024-02-23T12:23:25;69883.06;;;-146.40;37.29
13033;BME280;6583;42.632;23.298;2024-02-23T12:25:54;69866.91;;;-146.40;37.45
13033;BME280;6583;42.632;23.298;2024-02-23T12:28:21;69870.94;;;-146.40;38.73
13033;BME280;6583;42.632;23.298;2024-02-23T12:30:58;69846.66;;;-146.40;37.39
13033;BME280;6583;42.632;23.298;2024-02-23T12:33:27;69820.38;;;-146.40;37.25
13033;BME280;6583;42.632;23.298;2024-02-23T12:35:54;69804.19;;;-146.40;36.36
13033;BME280;6583;42.632;23.298;2024-02-23T12:38:20;69802.16;;;-146.40;36.79
13033;BME280;6583;42.632;23.298;2024-02-23T12:40:47;69769.81;;;-146.40;36.65